ダッカ の空港の天気 - METARとTAF

シャージャラル国際空港(ダッカ) ( VGHS / DAC ) - バングラデシュ ダッカ
飛行場実況気象(Metar)
観測時間10/15 23:00 BDT (10/15 17:00 UTC)
風向・風速南 2m/s
視程4000m
天気現象煙霧
少しの雲 雲底高度 3050m
気温28℃
湿度70%
気圧1014hPa
METARVGHS 151700Z 18003KT 4000 HZ FEW100 28/22 Q1014 NOSIG
過去の天気等 Google飛行場航空写真 Wunderground天気予報

過去48時間のMETAR

飛行場予報(TAF)
発表時間: 10/15 17:00 BDT (10/15 11:00 UTC)
予報対象時間: 15日18時 BDT ~ 17日0時 BDT
風向・風速東南東 3m/s
視程4000m
天気現象煙霧
なし
16日0時 BDT ~ 16日2時 BDT に徐々に
風向・風速不定 2m/s
視程3500m
天気現象煙霧
少しの雲 雲底高度 460m
全天の4割程度の雲 雲底高度 3050m
16日6時 BDT ~ 16日8時 BDT に徐々に
風向・風速南東 3m/s
視程3200m
天気現象煙霧
全天の4割程度の雲 雲底高度 370m
全天の8割程度の雲 雲底高度 3050m
16日10時 BDT ~ 16日12時 BDT に徐々に
風向・風速東南東 4m/s
視程4000m
天気現象煙霧
全天の4割程度の雲 雲底高度 460m
全天の8割程度の雲 雲底高度 3050m
16日6時 BDT ~ 16日18時 BDT に一時的に
風向・風速南東 13m/s
視程2000m
TAF VGHS 151100Z 1512/1618 12005KT 4000 HZ NSC
BECMG 1518/1520 VRB03KT 3500 HZ FEW015 SCT100
BECMG 1600/1602 14005KT 3200 HZ SCT012 BKN100
BECMG 1604/1606 12008KT 4000 HZ SCT015 BKN100
TEMPO 1600/1612 14025KT 2000 RA/TSRA BKN008 FEW025CB OVC090